Time;durP1;ratioP1;P1;durP2;ratioP2;P2;SDS_P1;SDS_P2;PMS_P1;PMS_P2;Temp;Humidity;BMP_temperature;BMP_pressure;BME280_temperature;BME280_humidity;BME280_pressure;Samples;Min_cycle;Max_cycle;Signal;HPM_P1;HPM_P2
2021/03/07 00:00:33;;;;;;;6.55;2.80;;;-2.40;99.90;;;;;;5080437;27;20040;-64
2021/03/07 00:02:59;;;;;;;5.68;3.03;;;-2.40;99.90;;;;;;5081024;28;20044;-63
2021/03/07 00:05:24;;;;;;;6.95;2.85;;;-2.40;99.90;;;;;;5080375;28;20037;-63
2021/03/07 00:07:52;;;;;;;9.55;3.35;;;-2.40;99.90;;;;;;5080802;28;20623;-64
2021/03/07 00:10:18;;;;;;;7.35;2.92;;;-2.40;99.90;;;;;;5080664;28;20483;-65
2021/03/07 00:12:46;;;;;;;7.15;3.15;;;-2.40;99.90;;;;;;5080259;28;20036;-64
2021/03/07 00:15:13;;;;;;;5.13;2.97;;;-2.40;99.90;;;;;;5070658;28;20053;-65
2021/03/07 00:17:39;;;;;;;6.75;3.42;;;-2.40;99.90;;;;;;5066715;28;20123;-64
2021/03/07 00:20:08;;;;;;;8.07;3.00;;;-2.40;99.90;;;;;;5067178;28;20377;-64
2021/03/07 00:22:34;;;;;;;6.53;3.25;;;-2.40;99.90;;;;;;5066424;28;20098;-63
2021/03/07 00:25:00;;;;;;;7.25;3.08;;;-2.40;99.90;;;;;;5066665;28;20072;-64
2021/03/07 00:27:26;;;;;;;5.43;2.90;;;-2.40;99.90;;;;;;5066293;28;20826;-64
2021/03/07 00:29:51;;;;;;;7.00;3.40;;;-2.50;99.90;;;;;;5067044;28;20470;-63
2021/03/07 00:32:17;;;;;;;4.57;2.72;;;-2.50;99.90;;;;;;5066200;28;20064;-64
2021/03/07 00:34:43;;;;;;;8.23;2.97;;;-2.50;99.90;;;;;;5066679;28;20101;-63
2021/03/07 00:37:08;;;;;;;6.20;3.03;;;-2.50;99.90;;;;;;5067537;28;20097;-64
2021/03/07 00:39:34;;;;;;;6.53;2.92;;;-2.50;99.90;;;;;;5067169;28;20385;-63
2021/03/07 00:42:00;;;;;;;5.15;2.88;;;-2.60;99.90;;;;;;5067629;28;20062;-65
2021/03/07 00:44:26;;;;;;;9.90;3.90;;;-2.60;99.90;;;;;;5067259;28;20041;-64
2021/03/07 00:46:53;;;;;;;9.73;3.60;;;-2.60;99.90;;;;;;5066490;28;20051;-62
2021/03/07 00:49:24;;;;;;;10.23;3.53;;;-2.60;99.90;;;;;;5062128;28;20036;-63
2021/03/07 00:51:50;;;;;;;9.45;3.50;;;-2.70;99.90;;;;;;5066044;28;20116;-63
2021/03/07 00:54:16;;;;;;;5.57;3.00;;;-2.70;99.90;;;;;;5067248;28;20064;-64
2021/03/07 00:56:41;;;;;;;6.18;3.22;;;-2.70;99.90;;;;;;5066784;28;20198;-63
2021/03/07 00:59:07;;;;;;;7.55;3.75;;;-2.70;99.90;;;;;;5067533;28;20036;-64
2021/03/07 01:01:33;;;;;;;8.45;3.20;;;-2.70;99.90;;;;;;5067042;28;20044;-63
2021/03/07 01:03:59;;;;;;;10.23;3.28;;;-2.70;99.90;;;;;;5066926;28;20409;-63
2021/03/07 01:06:24;;;;;;;5.82;3.15;;;-2.70;99.90;;;;;;5062942;28;20038;-62
2021/03/07 01:08:50;;;;;;;6.18;2.97;;;-2.70;99.90;;;;;;5066818;28;20045;-62
2021/03/07 01:11:16;;;;;;;7.20;3.10;;;-2.70;99.90;;;;;;5066584;28;20033;-63
2021/03/07 01:13:42;;;;;;;5.78;3.58;;;-2.80;99.90;;;;;;5067299;28;20168;-63
2021/03/07 01:16:07;;;;;;;9.30;3.45;;;-2.80;99.90;;;;;;5066087;28;20067;-63
2021/03/07 01:18:33;;;;;;;7.68;3.20;;;-2.80;99.90;;;;;;5067165;28;20059;-64
2021/03/07 01:21:01;;;;;;;7.53;3.03;;;-2.80;99.90;;;;;;5066803;28;20040;-63
2021/03/07 01:23:29;;;;;;;8.57;3.55;;;-2.80;99.90;;;;;;5059512;28;20044;-63
2021/03/07 01:25:55;;;;;;;7.43;3.53;;;-2.80;99.90;;;;;;5047564;28;20515;-63
2021/03/07 01:28:20;;;;;;;11.13;3.20;;;-2.80;99.90;;;;;;5066159;28;20055;-64
2021/03/07 01:30:46;;;;;;;5.85;3.33;;;-2.90;99.90;;;;;;5065422;28;20041;-63
2021/03/07 01:33:12;;;;;;;8.82;3.65;;;-2.80;99.90;;;;;;5064563;28;20037;-63
2021/03/07 01:35:39;;;;;;;10.50;3.53;;;-2.90;99.90;;;;;;5065729;28;20044;-64
2021/03/07 01:38:05;;;;;;;5.80;3.05;;;-2.80;99.90;;;;;;5065007;28;20041;-63
2021/03/07 01:40:39;;;;;;;11.75;3.65;;;-2.80;99.90;;;;;;5065594;28;20045;-63
2021/03/07 01:43:05;;;;;;;7.72;3.38;;;-2.80;99.90;;;;;;5065157;28;20037;-63
2021/03/07 01:45:33;;;;;;;5.88;2.92;;;-2.70;99.90;;;;;;5063663;28;20068;-63
2021/03/07 01:48:05;;;;;;;7.80;3.25;;;-2.80;99.90;;;;;;5065280;28;20032;-64
2021/03/07 01:50:33;;;;;;;7.03;3.80;;;-2.80;99.90;;;;;;5060972;28;20040;-63
2021/03/07 01:52:59;;;;;;;5.70;3.47;;;-2.90;99.90;;;;;;5064251;28;20528;-63
2021/03/07 01:55:31;;;;;;;9.85;3.42;;;-2.90;99.90;;;;;;5065081;28;20119;-63
2021/03/07 01:58:08;;;;;;;11.32;3.55;;;-2.90;99.90;;;;;;5065366;28;20036;-62
2021/03/07 02:00:34;;;;;;;6.43;3.42;;;-2.90;99.90;;;;;;5058284;28;20036;-63
2021/03/07 02:03:00;;;;;;;9.70;3.75;;;-3.00;99.90;;;;;;5062934;28;20037;-62
2021/03/07 02:05:27;;;;;;;10.68;3.88;;;-3.00;99.90;;;;;;5056848;28;20043;-63
2021/03/07 02:07:53;;;;;;;11.48;3.42;;;-3.00;99.90;;;;;;5065371;28;20127;-64
2021/03/07 02:10:23;;;;;;;6.72;3.35;;;-3.00;99.90;;;;;;5064625;28;20772;-64
2021/03/07 02:12:50;;;;;;;8.73;3.72;;;-3.10;99.90;;;;;;5064999;28;20036;-63
2021/03/07 02:15:17;;;;;;;6.65;3.55;;;-3.10;99.90;;;;;;5055178;28;20118;-64
2021/03/07 02:17:43;;;;;;;9.80;4.05;;;-3.10;99.90;;;;;;5065261;28;20039;-64
2021/03/07 02:20:11;;;;;;;9.27;3.20;;;-3.10;99.90;;;;;;5064861;28;20036;-64
2021/03/07 02:22:43;;;;;;;6.10;3.40;;;-3.10;99.90;;;;;;5064562;28;20048;-63
2021/03/07 02:25:12;;;;;;;11.52;3.78;;;-3.10;99.90;;;;;;5064775;28;20043;-62
2021/03/07 02:27:38;;;;;;;15.50;3.70;;;-3.10;99.90;;;;;;5056965;28;20078;-63
2021/03/07 02:30:06;;;;;;;6.22;3.13;;;-3.20;99.90;;;;;;5064136;28;20036;-62
2021/03/07 02:32:36;;;;;;;10.73;3.97;;;-3.20;99.90;;;;;;5064134;28;20037;-64
2021/03/07 02:35:08;;;;;;;9.52;3.83;;;-3.20;99.90;;;;;;5063685;28;20040;-64
2021/03/07 02:37:35;;;;;;;11.32;4.10;;;-3.20;99.90;;;;;;5064126;28;20094;-64
2021/03/07 02:40:02;;;;;;;6.78;3.50;;;-3.20;99.90;;;;;;5064631;28;20040;-64
2021/03/07 02:42:29;;;;;;;10.30;3.50;;;-3.20;99.90;;;;;;5063135;28;20041;-63
2021/03/07 02:45:10;;;;;;;6.47;3.63;;;-3.20;99.90;;;;;;5064665;28;20051;-63
2021/03/07 02:47:37;;;;;;;10.20;3.80;;;-3.20;99.90;;;;;;5060953;28;20040;-64
2021/03/07 02:50:12;;;;;;;7.80;4.07;;;-3.10;99.90;;;;;;5056630;28;20090;-64
2021/03/07 02:52:40;;;;;;;7.28;3.60;;;-3.10;99.90;;;;;;5063227;28;20048;-64
2021/03/07 02:55:08;;;;;;;8.27;3.65;;;-3.10;99.90;;;;;;5055805;28;20165;-63
2021/03/07 02:57:35;;;;;;;8.27;3.78;;;-3.10;99.90;;;;;;5063219;28;20067;-62
2021/03/07 03:00:01;;;;;;;6.35;3.30;;;-3.10;99.90;;;;;;5063946;28;20552;-63
2021/03/07 03:02:30;;;;;;;6.25;3.83;;;-3.10;99.90;;;;;;5073355;28;20139;-63
2021/03/07 03:04:57;;;;;;;5.90;3.58;;;-3.10;99.90;;;;;;5076089;28;20046;-63
2021/03/07 03:07:26;;;;;;;4.93;3.67;;;-3.10;99.90;;;;;;5075948;28;20059;-63
2021/03/07 03:09:53;;;;;;;6.97;4.32;;;-3.20;99.90;;;;;;5076951;28;20062;-64
2021/03/07 03:12:21;;;;;;;8.38;3.95;;;-3.20;99.90;;;;;;5083846;28;20039;-63
2021/03/07 03:14:47;;;;;;;7.43;3.33;;;-3.20;99.90;;;;;;5076375;28;20044;-63
2021/03/07 03:17:15;;;;;;;6.57;3.67;;;-3.10;99.90;;;;;;5083115;28;20032;-63
2021/03/07 03:19:42;;;;;;;11.73;4.68;;;-3.10;99.90;;;;;;5076681;28;20566;-64
2021/03/07 03:22:08;;;;;;;5.07;3.58;;;-3.00;99.90;;;;;;5081610;28;20028;-63
2021/03/07 03:24:34;;;;;;;5.22;3.50;;;-3.00;99.90;;;;;;5071904;28;20563;-63
2021/03/07 03:27:03;;;;;;;10.52;3.97;;;-3.00;99.90;;;;;;5079207;28;20158;-63
2021/03/07 03:29:30;;;;;;;5.72;3.40;;;-3.00;99.90;;;;;;5072675;28;20494;-62
2021/03/07 03:31:56;;;;;;;7.13;3.75;;;-2.90;99.90;;;;;;5075197;28;20047;-63
2021/03/07 03:34:22;;;;;;;10.80;3.70;;;-2.90;99.90;;;;;;5076501;28;20070;-63
2021/03/07 03:36:48;;;;;;;7.55;4.15;;;-2.90;99.90;;;;;;5074858;28;20040;-63
2021/03/07 03:39:19;;;;;;;10.25;4.15;;;-2.90;99.90;;;;;;5083902;28;20132;-64
2021/03/07 03:41:48;;;;;;;10.68;3.50;;;-2.90;99.90;;;;;;5083180;28;20123;-63
2021/03/07 03:44:17;;;;;;;8.02;3.60;;;-2.90;99.90;;;;;;5083629;28;20598;-63
2021/03/07 03:46:45;;;;;;;7.78;3.92;;;-2.90;99.90;;;;;;5074715;28;20048;-63
2021/03/07 03:49:18;;;;;;;8.75;4.18;;;-3.00;99.90;;;;;;5079499;28;20412;-63
2021/03/07 03:51:46;;;;;;;3.97;2.53;;;-3.00;99.90;;;;;;5075492;28;20612;-63
2021/03/07 03:54:13;;;;;;;6.50;3.70;;;-3.00;99.90;;;;;;5081276;28;20517;-63
2021/03/07 03:56:39;;;;;;;6.60;3.70;;;-3.00;99.90;;;;;;5086450;28;20450;-63
2021/03/07 03:59:07;;;;;;;6.00;3.63;;;-3.10;99.90;;;;;;5087871;28;20060;-63
2021/03/07 04:01:35;;;;;;;7.18;3.88;;;-3.10;99.90;;;;;;5087126;28;20408;-63
2021/03/07 04:04:04;;;;;;;10.40;4.20;;;-3.20;99.90;;;;;;5079279;28;20097;-63
2021/03/07 04:06:30;;;;;;;7.45;3.50;;;-3.20;99.90;;;;;;5086798;28;20115;-64
2021/03/07 04:08:56;;;;;;;11.98;4.40;;;-3.20;99.90;;;;;;5087620;28;20047;-63
2021/03/07 04:11:23;;;;;;;10.25;4.45;;;-3.20;99.90;;;;;;5086888;28;20581;-63
2021/03/07 04:13:49;;;;;;;7.63;3.58;;;-3.20;99.90;;;;;;5078761;28;20043;-64
2021/03/07 04:16:15;;;;;;;8.43;4.03;;;-3.30;99.90;;;;;;5086132;28;20093;-63
2021/03/07 04:18:41;;;;;;;11.40;4.68;;;-3.30;99.90;;;;;;5084291;28;20043;-62
2021/03/07 04:21:08;;;;;;;8.75;3.75;;;-3.30;99.90;;;;;;5078579;28;20028;-63
2021/03/07 04:23:35;;;;;;;6.30;3.50;;;-3.40;99.90;;;;;;5086775;28;20044;-63
2021/03/07 04:26:01;;;;;;;6.65;3.70;;;-3.40;99.90;;;;;;5083416;28;20131;-64
2021/03/07 04:28:28;;;;;;;6.45;4.47;;;-3.50;99.90;;;;;;5074464;28;20403;-62
2021/03/07 04:30:54;;;;;;;7.75;4.25;;;-3.40;99.90;;;;;;5083769;28;20135;-63
2021/03/07 04:33:21;;;;;;;7.43;4.45;;;-3.40;99.90;;;;;;5082024;28;20123;-63
2021/03/07 04:35:47;;;;;;;9.38;3.38;;;-3.40;99.90;;;;;;5077689;28;20127;-63
2021/03/07 04:38:13;;;;;;;9.52;4.22;;;-3.40;99.90;;;;;;5078396;28;20575;-63
2021/03/07 04:40:39;;;;;;;8.07;3.65;;;-3.50;99.90;;;;;;5087506;28;20551;-64
2021/03/07 04:43:06;;;;;;;14.73;4.57;;;-3.40;99.90;;;;;;5083894;28;20121;-63
2021/03/07 04:45:32;;;;;;;7.43;4.18;;;-3.40;99.90;;;;;;5079299;28;20069;-63
2021/03/07 04:47:59;;;;;;;5.03;3.50;;;-3.40;99.90;;;;;;5085951;28;20036;-62
2021/03/07 04:50:24;;;;;;;8.05;3.80;;;-3.40;99.90;;;;;;5083199;28;20051;-63
2021/03/07 04:52:50;;;;;;;5.65;3.42;;;-3.40;99.90;;;;;;5087180;28;20044;-62
2021/03/07 04:55:16;;;;;;;6.57;3.83;;;-3.40;99.90;;;;;;5085914;28;20055;-63
2021/03/07 04:57:42;;;;;;;8.52;4.18;;;-3.40;99.90;;;;;;5078758;28;20055;-63
2021/03/07 05:00:10;;;;;;;13.30;4.53;;;-3.40;99.90;;;;;;5076001;28;20044;-63
2021/03/07 05:02:36;;;;;;;12.18;4.50;;;-3.50;99.90;;;;;;5079921;28;20048;-64
2021/03/07 05:05:02;;;;;;;7.80;5.18;;;-3.50;99.90;;;;;;5078035;28;20040;-63
2021/03/07 05:07:28;;;;;;;9.73;4.70;;;-3.40;99.90;;;;;;5086570;28;20574;-64
2021/03/07 05:09:53;;;;;;;16.83;4.07;;;-3.50;99.90;;;;;;5086404;28;20036;-63
2021/03/07 05:12:19;;;;;;;7.50;3.60;;;-3.40;99.90;;;;;;5082325;28;20127;-64
2021/03/07 05:14:45;;;;;;;9.57;4.10;;;-3.50;99.90;;;;;;5083503;28;20040;-63
2021/03/07 05:17:11;;;;;;;11.65;4.90;;;-3.50;99.90;;;;;;5084315;28;20043;-63
2021/03/07 05:19:36;;;;;;;9.75;3.80;;;-3.50;99.90;;;;;;5081430;28;20941;-63
2021/03/07 05:22:02;;;;;;;7.43;4.60;;;-3.50;99.90;;;;;;5066350;28;20032;-63
2021/03/07 05:24:27;;;;;;;10.95;4.32;;;-3.50;99.90;;;;;;5082373;28;20411;-63
2021/03/07 05:26:53;;;;;;;10.82;4.35;;;-3.50;99.90;;;;;;5079472;28;20024;-63
2021/03/07 05:29:19;;;;;;;11.00;4.43;;;-3.40;99.90;;;;;;5080629;28;20106;-63
2021/03/07 05:31:44;;;;;;;8.85;4.40;;;-3.50;99.90;;;;;;5081141;28;20538;-63
2021/03/07 05:34:10;;;;;;;7.47;3.85;;;-3.50;99.90;;;;;;5077297;28;20047;-62
2021/03/07 05:36:36;;;;;;;6.20;3.92;;;-3.40;99.90;;;;;;5077398;28;20786;-63
2021/03/07 05:39:02;;;;;;;8.30;4.70;;;-3.40;99.90;;;;;;5087171;28;20043;-64
2021/03/07 05:41:28;;;;;;;6.90;4.10;;;-3.30;99.90;;;;;;5084670;28;20178;-64
2021/03/07 05:43:54;;;;;;;10.57;4.60;;;-3.30;99.90;;;;;;5083504;28;20702;-65
2021/03/07 05:46:19;;;;;;;8.77;4.57;;;-3.20;99.90;;;;;;5080481;28;20034;-65
2021/03/07 05:48:45;;;;;;;5.78;3.83;;;-3.20;99.90;;;;;;5083127;28;20040;-63
2021/03/07 05:51:15;;;;;;;6.70;4.65;;;-3.20;99.90;;;;;;5072403;28;20060;-63
2021/03/07 05:53:45;;;;;;;9.82;4.07;;;-3.10;99.90;;;;;;5083554;28;20040;-63
2021/03/07 05:56:10;;;;;;;11.18;4.68;;;-3.10;99.90;;;;;;5079151;28;20028;-62
2021/03/07 05:58:37;;;;;;;10.77;4.78;;;-3.10;99.90;;;;;;5084678;28;20670;-62
2021/03/07 06:01:03;;;;;;;7.18;4.38;;;-3.10;99.90;;;;;;5084054;28;20036;-61
2021/03/07 06:03:29;;;;;;;5.45;4.07;;;-3.10;99.90;;;;;;5083419;28;20457;-60
2021/03/07 06:05:56;;;;;;;6.55;3.65;;;-3.20;99.90;;;;;;5074427;28;20028;-60
2021/03/07 06:08:22;;;;;;;9.50;4.38;;;-3.20;99.90;;;;;;5085245;28;20032;-62
2021/03/07 06:10:48;;;;;;;13.32;4.88;;;-3.20;99.90;;;;;;5082487;28;20040;-63
2021/03/07 06:13:14;;;;;;;8.27;5.00;;;-3.10;99.90;;;;;;5070115;28;20064;-63
2021/03/07 06:15:43;;;;;;;8.10;4.90;;;-3.10;99.90;;;;;;5083534;28;20066;-63
2021/03/07 06:18:20;;;;;;;9.38;4.53;;;-3.10;99.90;;;;;;5084234;28;20114;-64
2021/03/07 06:20:48;;;;;;;10.38;5.43;;;-3.00;99.90;;;;;;5084827;28;20063;-64
2021/03/07 06:23:13;;;;;;;14.70;6.50;;;-3.00;99.90;;;;;;5079733;28;20094;-64
2021/03/07 06:25:51;;;;;;;11.88;5.95;;;-3.10;99.90;;;;;;5080096;28;20039;-64
2021/03/07 06:28:30;;;;;;;8.57;4.93;;;-3.10;99.90;;;;;;5072296;28;20043;-63
2021/03/07 06:30:55;;;;;;;10.93;4.60;;;-3.10;99.90;;;;;;5075216;28;20036;-62
2021/03/07 06:33:37;;;;;;;9.95;4.53;;;-3.10;99.90;;;;;;5083551;28;20040;-62
2021/03/07 06:36:20;;;;;;;11.18;4.43;;;-3.20;99.90;;;;;;5076493;28;20047;-62
2021/03/07 06:38:57;;;;;;;10.32;5.15;;;-3.20;99.90;;;;;;5081939;28;20445;-62
2021/03/07 06:41:26;;;;;;;11.52;5.47;;;-3.20;99.90;;;;;;5084818;28;20541;-64
2021/03/07 06:44:04;;;;;;;9.57;4.53;;;-3.10;99.90;;;;;;5073821;28;20049;-64
2021/03/07 06:46:33;;;;;;;13.13;4.78;;;-2.80;99.90;;;;;;5077973;28;20047;-63
2021/03/07 06:49:00;;;;;;;31.10;15.40;;;-2.60;99.90;;;;;;5081402;28;20032;-64
2021/03/07 06:51:28;;;;;;;17.00;7.85;;;-2.40;99.90;;;;;;5078809;28;20040;-62
2021/03/07 06:53:54;;;;;;;13.23;5.85;;;-2.40;99.90;;;;;;5074334;28;20507;-63
2021/03/07 06:56:41;;;;;;;13.13;5.95;;;-2.20;99.90;;;;;;5073865;28;20036;-63
2021/03/07 06:59:16;;;;;;;14.27;5.90;;;-2.00;99.90;;;;;;5083783;28;20123;-63
2021/03/07 07:01:43;;;;;;;9.93;5.55;;;-1.30;99.90;;;;;;5075488;28;20044;-63
2021/03/07 07:04:10;;;;;;;9.75;5.70;;;-0.20;99.90;;;;;;5082654;28;20047;-63
2021/03/07 07:06:38;;;;;;;12.57;4.20;;;0.70;99.90;;;;;;5083093;28;20073;-63
2021/03/07 07:09:06;;;;;;;10.63;4.25;;;1.50;99.40;;;;;;5080767;28;20040;-63
2021/03/07 07:11:44;;;;;;;9.75;3.65;;;1.90;97.80;;;;;;5076759;28;20188;-63
2021/03/07 07:14:11;;;;;;;6.22;3.60;;;1.70;97.60;;;;;;5067794;28;20501;-64
2021/03/07 07:16:37;;;;;;;6.03;3.97;;;1.60;97.90;;;;;;5081951;28;20444;-63
2021/03/07 07:19:03;;;;;;;;;;;1.10;98.10;;;;;;5081069;28;20075;-63
2021/03/07 07:21:29;;;;;;;9.57;4.70;;;0.90;98.50;;;;;;5081178;28;19920;-63
2021/03/07 07:23:55;;;;;;;7.95;4.43;;;0.70;99.40;;;;;;5081920;28;20123;-63
2021/03/07 07:26:20;;;;;;;;;;;0.80;99.30;;;;;;5077449;28;20202;-63
2021/03/07 07:28:46;;;;;;;11.85;4.30;;;1.00;98.50;;;;;;5077249;28;19931;-63
2021/03/07 07:31:16;;;;;;;;;;;1.50;98.70;;;;;;5070182;28;20040;-65
2021/03/07 07:33:55;;;;;;;7.15;4.32;;;1.70;97.40;;;;;;5082219;28;19972;-62
2021/03/07 07:36:28;;;;;;;8.82;4.43;;;1.90;97.00;;;;;;5075971;28;20139;-63
2021/03/07 07:38:56;;;;;;;11.20;5.63;;;1.70;97.60;;;;;;5080131;28;20040;-62
2021/03/07 07:41:34;;;;;;;9.57;5.38;;;0.90;98.10;;;;;;5086736;28;20036;-66
2021/03/07 07:44:01;;;;;;;9.35;4.60;;;1.10;99.50;;;;;;5087765;28;20047;-65
2021/03/07 07:46:27;;;;;;;9.68;5.05;;;1.10;98.50;;;;;;5086345;28;20044;-64
2021/03/07 07:48:53;;;;;;;12.20;4.50;;;1.00;99.20;;;;;;5077863;28;20124;-64
2021/03/07 07:51:34;;;;;;;7.85;4.35;;;1.30;99.10;;;;;;5084225;28;20032;-67
2021/03/07 07:54:01;;;;;;;8.13;4.40;;;1.30;98.80;;;;;;5080971;28;20067;-65
2021/03/07 07:56:41;;;;;;;9.95;5.15;;;1.50;99.70;;;;;;5086328;28;20071;-61
2021/03/07 07:59:09;;;;;;;8.50;4.07;;;1.50;99.50;;;;;;5079682;28;20082;-63
2021/03/07 08:01:57;;;;;;;8.20;3.63;;;1.80;99.40;;;;;;5082553;28;20028;-63
2021/03/07 08:04:29;;;;;;;7.43;4.15;;;2.50;99.60;;;;;;5076218;28;20041;-63
2021/03/07 08:06:56;;;;;;;7.03;3.85;;;2.90;98.40;;;;;;5076130;28;20086;-64
2021/03/07 08:09:38;;;;;;;10.82;4.88;;;3.30;97.00;;;;;;5084916;28;20036;-64
2021/03/07 08:12:45;;;;;;;24.45;10.05;;;4.00;96.30;;;;;;5081234;28;20081;-64
2021/03/07 08:15:50;;;;;;;11.50;4.45;;;4.50;93.20;;;;;;5081888;28;20066;-63
2021/03/07 08:18:20;;;;;;;7.47;4.00;;;4.40;92.60;;;;;;5081205;28;20109;-63
2021/03/07 08:20:46;;;;;;;7.68;3.53;;;4.60;94.30;;;;;;5077888;28;20040;-63
2021/03/07 08:23:13;;;;;;;9.00;3.90;;;5.10;94.50;;;;;;5078225;28;20040;-61
2021/03/07 08:25:51;;;;;;;7.20;3.78;;;5.00;91.50;;;;;;5076770;28;20043;-61
2021/03/07 08:28:28;;;;;;;12.88;5.97;;;5.10;90.50;;;;;;5086290;28;20089;-61
2021/03/07 08:30:59;;;;;;;8.63;3.92;;;4.70;90.70;;;;;;5077678;28;20113;-61
2021/03/07 08:33:32;;;;;;;6.82;3.60;;;4.50;93.60;;;;;;5077379;28;20098;-61
2021/03/07 08:36:19;;;;;;;7.32;3.83;;;3.70;93.00;;;;;;5065879;28;20036;-61
2021/03/07 08:38:56;;;;;;;7.95;3.83;;;3.10;93.90;;;;;;5084583;28;20181;-61
2021/03/07 08:41:34;;;;;;;8.95;4.93;;;2.80;95.00;;;;;;5085853;28;20068;-61
2021/03/07 08:44:08;;;;;;;7.90;4.68;;;2.70;96.10;;;;;;5078658;28;20036;-61
2021/03/07 08:46:40;;;;;;;8.25;4.68;;;2.40;95.30;;;;;;5077422;28;20039;-61
2021/03/07 08:49:11;;;;;;;9.88;5.00;;;2.20;96.70;;;;;;5080385;28;20039;-61
2021/03/07 08:51:39;;;;;;;8.50;4.30;;;2.20;98.70;;;;;;5080977;28;20036;-61
2021/03/07 08:54:07;;;;;;;8.77;4.60;;;2.20;94.70;;;;;;5074360;28;20491;-61
2021/03/07 08:56:33;;;;;;;9.02;5.35;;;2.20;95.30;;;;;;5081444;28;20206;-61
2021/03/07 08:58:59;;;;;;;20.13;11.40;;;2.30;95.50;;;;;;5073712;28;20036;-61
2021/03/07 09:01:26;;;;;;;11.65;6.00;;;2.60;95.90;;;;;;5080604;28;20076;-62
2021/03/07 09:03:56;;;;;;;16.83;6.25;;;2.70;93.70;;;;;;5073430;28;20105;-61
2021/03/07 09:06:27;;;;;;;15.07;7.95;;;2.80;94.30;;;;;;5080161;28;20044;-61
2021/03/07 09:09:05;;;;;;;11.30;5.25;;;2.80;93.50;;;;;;5075920;28;20071;-62
2021/03/07 09:11:31;;;;;;;10.40;5.10;;;2.80;92.00;;;;;;5069246;28;20500;-61
2021/03/07 09:13:57;;;;;;;10.75;5.53;;;3.00;92.60;;;;;;5077284;28;20044;-61
2021/03/07 09:16:22;;;;;;;7.13;4.78;;;3.10;93.00;;;;;;5083687;28;20629;-61
2021/03/07 09:18:48;;;;;;;11.40;4.78;;;3.20;91.70;;;;;;5082699;28;20454;-60
2021/03/07 09:21:16;;;;;;;9.98;4.95;;;3.20;91.80;;;;;;5065873;28;20071;-62
2021/03/07 09:23:44;;;;;;;9.27;5.30;;;3.20;90.90;;;;;;5074825;28;20078;-61
2021/03/07 09:26:10;;;;;;;9.50;4.80;;;3.30;90.30;;;;;;5080266;28;20043;-62
2021/03/07 09:28:56;;;;;;;8.25;4.75;;;3.20;88.20;;;;;;5080743;28;20040;-62
2021/03/07 09:31:23;;;;;;;10.50;5.35;;;3.20;90.30;;;;;;5067495;28;20040;-62
2021/03/07 09:33:54;;;;;;;11.20;5.70;;;3.10;87.20;;;;;;5080845;28;20067;-62
2021/03/07 09:36:22;;;;;;;10.23;4.45;;;3.10;90.40;;;;;;5084332;28;20044;-67
2021/03/07 09:38:55;;;;;;;14.32;5.18;;;3.10;91.30;;;;;;5084122;28;20115;-62
2021/03/07 09:41:40;;;;;;;9.02;5.63;;;3.20;88.80;;;;;;5084872;28;20040;-63
2021/03/07 09:44:16;;;;;;;13.23;4.90;;;3.30;89.80;;;;;;5074556;28;20930;-63
2021/03/07 09:46:46;;;;;;;9.73;5.50;;;3.40;90.20;;;;;;5074265;28;20050;-64
2021/03/07 09:49:14;;;;;;;9.57;5.07;;;3.30;89.40;;;;;;5082629;28;20036;-63
2021/03/07 09:51:41;;;;;;;10.05;5.47;;;3.50;88.30;;;;;;5076532;28;20064;-63
2021/03/07 09:54:12;;;;;;;10.65;6.70;;;3.60;85.60;;;;;;5075629;28;20040;-61
2021/03/07 09:56:39;;;;;;;10.45;5.75;;;3.70;90.20;;;;;;5084071;28;20043;-63
2021/03/07 09:59:18;;;;;;;10.48;5.90;;;3.70;86.90;;;;;;5083589;28;20122;-62
2021/03/07 10:01:45;;;;;;;11.38;5.78;;;3.80;90.50;;;;;;5083645;28;20036;-63
2021/03/07 10:04:31;;;;;;;23.13;11.98;;;4.00;90.00;;;;;;5081068;28;20051;-63
2021/03/07 10:06:59;;;;;;;7.57;5.35;;;4.20;85.70;;;;;;5082755;28;20043;-62
2021/03/07 10:09:26;;;;;;;8.82;6.22;;;4.20;84.10;;;;;;5084123;28;20127;-62
2021/03/07 10:12:02;;;;;;;11.20;6.60;;;4.10;88.20;;;;;;5083359;28;20044;-63
2021/03/07 10:14:32;;;;;;;10.75;6.75;;;3.80;90.30;;;;;;5077801;28;20098;-64
2021/03/07 10:17:00;;;;;;;12.70;7.75;;;3.80;88.20;;;;;;5075126;28;20040;-64
2021/03/07 10:19:36;;;;;;;14.77;8.68;;;3.70;91.00;;;;;;5083353;28;20603;-64
2021/03/07 10:22:04;;;;;;;15.38;10.40;;;3.60;92.30;;;;;;5078860;28;20045;-64
2021/03/07 10:24:34;;;;;;;14.20;9.88;;;3.80;94.40;;;;;;5081575;28;20138;-63
2021/03/07 10:27:07;;;;;;;14.27;8.88;;;3.90;94.70;;;;;;5072728;28;20408;-63
2021/03/07 10:29:40;;;;;;;16.83;10.02;;;3.90;93.10;;;;;;5077064;28;20100;-64
2021/03/07 10:32:20;;;;;;;19.23;10.18;;;3.90;93.90;;;;;;5074231;28;20044;-63
2021/03/07 10:34:51;;;;;;;12.82;8.65;;;3.90;94.70;;;;;;5072887;28;20045;-64
2021/03/07 10:37:42;;;;;;;19.63;12.30;;;3.90;94.50;;;;;;5072235;28;20048;-63
2021/03/07 10:40:12;;;;;;;19.90;10.98;;;3.70;95.70;;;;;;5071844;28;20094;-63
2021/03/07 10:42:43;;;;;;;16.42;11.27;;;3.80;94.80;;;;;;5073474;28;20136;-64
2021/03/07 10:45:13;;;;;;;13.35;8.52;;;3.90;94.10;;;;;;5072096;28;20045;-64
2021/03/07 10:47:39;;;;;;;11.90;8.10;;;3.90;93.20;;;;;;5073715;28;20041;-64
2021/03/07 10:50:05;;;;;;;14.93;8.43;;;3.80;92.80;;;;;;5075853;28;20028;-63
2021/03/07 10:52:31;;;;;;;15.07;8.77;;;3.80;92.80;;;;;;5071805;28;20046;-63
2021/03/07 10:54:57;;;;;;;15.55;8.95;;;3.90;91.90;;;;;;5078576;28;20044;-63
2021/03/07 10:57:22;;;;;;;;;;;4.30;93.00;;;;;;5082818;28;20050;-62
2021/03/07 10:59:51;;;;;;;16.30;11.05;;;4.50;92.90;;;;;;5078872;28;19916;-62
2021/03/07 11:02:18;;;;;;;17.10;10.52;;;4.40;93.40;;;;;;5065342;28;20083;-63
2021/03/07 11:04:47;;;;;;;17.65;9.48;;;4.60;93.10;;;;;;5083857;28;20501;-63
2021/03/07 11:07:13;;;;;;;18.23;11.20;;;4.60;92.40;;;;;;5082513;28;20035;-62
2021/03/07 11:09:39;;;;;;;17.40;10.80;;;4.50;91.30;;;;;;5080853;28;20036;-64
2021/03/07 11:12:08;;;;;;;16.90;10.75;;;4.50;92.30;;;;;;5079562;28;20040;-62
2021/03/07 11:14:34;;;;;;;19.35;11.25;;;4.60;93.00;;;;;;5084427;28;20068;-62
2021/03/07 11:16:59;;;;;;;23.73;13.77;;;4.60;91.60;;;;;;5082956;28;20072;-62
2021/03/07 11:19:25;;;;;;;;;;;4.80;92.00;;;;;;5082161;28;20131;-63
2021/03/07 11:21:50;;;;;;;20.23;11.60;;;4.80;91.80;;;;;;5069248;28;19966;-63
2021/03/07 11:24:16;;;;;;;;;;;4.70;92.20;;;;;;5081103;28;20479;-63
2021/03/07 11:26:41;;;;;;;16.65;10.05;;;4.70;91.60;;;;;;5078348;28;19916;-61
2021/03/07 11:29:07;;;;;;;16.08;10.15;;;4.40;91.40;;;;;;5077633;28;20043;-63
2021/03/07 11:31:33;;;;;;;;;;;4.40;92.30;;;;;;5083716;28;20036;-62
2021/03/07 11:33:58;;;;;;;16.13;9.70;;;4.40;93.20;;;;;;5079221;28;20375;-63
2021/03/07 11:36:24;;;;;;;16.70;9.82;;;4.60;92.00;;;;;;5080414;28;20118;-62
2021/03/07 11:38:50;;;;;;;16.77;9.45;;;4.50;90.30;;;;;;5083064;28;20517;-63
2021/03/07 11:41:15;;;;;;;16.00;8.98;;;4.50;90.40;;;;;;5083002;28;20089;-64
2021/03/07 11:43:41;;;;;;;17.23;8.77;;;4.60;91.20;;;;;;5083003;28;20086;-62
2021/03/07 11:46:06;;;;;;;;;;;4.50;90.60;;;;;;5082590;28;20445;-63
2021/03/07 11:48:32;;;;;;;13.35;7.78;;;4.40;91.30;;;;;;5083081;28;19920;-62
2021/03/07 11:50:57;;;;;;;;;;;4.40;92.40;;;;;;5075793;28;20060;-62
2021/03/07 11:53:23;;;;;;;12.55;8.23;;;4.20;92.20;;;;;;5083729;28;19962;-62
2021/03/07 11:55:48;;;;;;;;;;;4.00;90.80;;;;;;5082367;28;20032;-62
2021/03/07 11:58:14;;;;;;;18.73;8.68;;;4.00;90.80;;;;;;5083768;28;20434;-62
2021/03/07 12:00:40;;;;;;;16.67;8.82;;;4.10;91.80;;;;;;5083334;28;20463;-63
2021/03/07 12:03:05;;;;;;;14.85;8.48;;;4.10;92.20;;;;;;5082824;28;20040;-70
2021/03/07 12:05:36;;;;;;;;;;;4.10;93.20;;;;;;4911080;22;20044;-79
2021/03/07 12:08:03;;;;;;;14.20;8.05;;;3.90;91.70;;;;;;5073507;28;20203;-78
2021/03/07 12:10:30;;;;;;;11.50;7.25;;;3.90;91.60;;;;;;5048210;28;20052;-81
2021/03/07 12:12:56;;;;;;;12.98;8.48;;;4.00;92.10;;;;;;5038119;28;20049;-80
2021/03/07 12:15:22;;;;;;;13.63;8.77;;;3.90;92.80;;;;;;5029687;28;20075;-79
2021/03/07 12:17:48;;;;;;;13.52;8.05;;;4.10;92.80;;;;;;5029197;28;20493;-79
2021/03/07 12:20:14;;;;;;;12.38;7.53;;;4.30;92.10;;;;;;5012444;28;20048;-78
2021/03/07 12:22:39;;;;;;;15.02;8.35;;;4.50;91.30;;;;;;5031037;28;20033;-79
2021/03/07 12:25:07;;;;;;;12.73;8.73;;;4.40;90.60;;;;;;5031321;28;20535;-78
2021/03/07 12:27:34;;;;;;;11.88;8.00;;;4.20;90.40;;;;;;5031210;28;20053;-78
2021/03/07 12:30:01;;;;;;;13.50;8.77;;;4.20;91.10;;;;;;5031271;28;20041;-78
2021/03/07 12:32:28;;;;;;;13.70;7.32;;;4.20;93.00;;;;;;5029699;28;20179;-78
2021/03/07 12:34:53;;;;;;;17.17;7.63;;;4.30;91.50;;;;;;5029280;28;20123;-78
2021/03/07 12:37:19;;;;;;;;;;;4.20;91.40;;;;;;5031284;28;20470;-79
2021/03/07 12:39:45;;;;;;;12.98;8.32;;;4.30;91.60;;;;;;5048773;28;19917;-80
2021/03/07 12:42:11;;;;;;;11.35;7.07;;;4.40;92.60;;;;;;5031035;28;20052;-79
2021/03/07 12:44:37;;;;;;;13.43;7.22;;;4.20;91.80;;;;;;5047614;28;20072;-78
2021/03/07 12:47:03;;;;;;;14.25;7.25;;;4.10;91.40;;;;;;5028470;28;20103;-79
2021/03/07 12:49:29;;;;;;;18.27;8.05;;;4.00;91.30;;;;;;5024784;28;20148;-80
2021/03/07 12:51:55;;;;;;;14.30;7.38;;;3.80;91.60;;;;;;5029964;28;20179;-79
2021/03/07 12:54:21;;;;;;;19.63;10.57;;;3.90;91.50;;;;;;5029414;28;20037;-79
2021/03/07 12:56:47;;;;;;;11.75;8.18;;;3.90;91.80;;;;;;5029741;28;20044;-79